EBCI - Charleroi/Gosselies, Belgium
Distance de la station: NE 18km
Mise à jour: 17/11/2018 14:20
clair
clair
 Wind from ENE
Vent: ENE 22 km/h
Température: 9°C
Température ressentie: 6°C
Point de rosée: 2°C
Humidité: 62%
Baromètre: 1026 hPa
Résumé: clair
Visibilité: greater than 10 km
2018/11/17 13:20 EBCI 171320Z 06012KT CAVOK 09/02 Q1026 NOSIG
EBFS - Florennes, Belgium
Distance de la station: ESE 31km
Mise à jour: 17/11/2018 13:55
nuageux
nuageux
 Wind from E
Vent: E 26 km/h
Température: 10°C
Température ressentie: 7°C
Point de rosée: -2°C
Humidité: 43%
Baromètre: 1026 hPa
Ciel: nuageux
Visibilité: 10 km
Détails du ciel: nuageux 6706 m
2018/11/17 12:55 EBFS 171255Z AUTO 09014KT 9999 BKN220/// 10/M02 Q1026 BLU
EBCV - Chievres, Belgium
Distance de la station: NO 40km
Mise à jour: 17/11/2018 13:55
clair
clair
 Wind from ENE
Vent: ENE 19 km/h
Température: 8°C
Température ressentie: 4°C
Point de rosée: 3°C
Humidité: 71%
Baromètre: 1027 hPa
Ciel: clair
Visibilité: 10 km
2018/11/17 12:55 EBCV 171255Z AUTO 07010KT 9999 NCD 08/03 Q1027 BLU
 
EBBE - Beauvechain, Belgium
Distance de la station: NE 57km
Mise à jour: 17/11/2018 13:55
clair
clair
 Wind from ENE
Vent: ENE 20 km/h
Température: 8°C
Température ressentie: 4°C
Point de rosée: 2°C
Humidité: 66%
Baromètre: 1028 hPa
Ciel: clair
Visibilité: 10 km
2018/11/17 12:55 EBBE 171255Z AUTO 07011KT 9999 NCD 08/02 Q1028 BLU
EBBR - Brussels National, Belgium
Distance de la station: NNE 63km
Mise à jour: 17/11/2018 14:20
clair
clair
 Wind from E
Vent: E 17 km/h
Température: 9°C
Température ressentie: 7°C
Point de rosée: 2°C
Humidité: 62%
Baromètre: 1028 hPa
Résumé: clair
Visibilité: greater than 10 km
2018/11/17 13:20 EBBR 171320Z 08009KT 050V110 CAVOK 09/02 Q1028 NOSIG
LFQI - Cambrai/Epinoy, France
Distance de la station: O 82km
Mise à jour: 29/06/2012 12:30
NOT Current

 Wind from SO
Vent: SO 17 km/h
Température: 18°C
Point de rosée: 14°C
Humidité: 78%
Baromètre: 1009 hPa
2012/06/29 10:30 LFQI 291030Z AUTO 22009KT //// // ///////// 18/14 Q1009
 
LFQQ - Lille/Lesquin, France
Distance de la station: ONO 86km
Mise à jour: 17/11/2018 14:00
clair
clair
 Wind from ENE
Vent: ENE 28 km/h
Température: 9°C
Température ressentie: 6°C
Point de rosée: 2°C
Humidité: 62%
Baromètre: 1026 hPa
Résumé: clair
Visibilité: greater than 10 km
2018/11/17 13:00 LFQQ 171300Z AUTO 07015KT CAVOK 09/02 Q1026 NOSIG
EBLG - Bierset/Liege, Belgium
Distance de la station: ENE 89km
Mise à jour: 17/11/2018 14:20
clair
clair
 Wind from NE
Vent: NE 22 km/h
Température: 8°C
Température ressentie: 4°C
Point de rosée: 1°C
Humidité: 62%
Baromètre: 1027 hPa
Résumé: clair
Visibilité: greater than 10 km
2018/11/17 13:20 EBLG 171320Z 05012KT CAVOK 08/01 Q1027 NOSIG
EBDT - Schaffen, Belgium
Distance de la station: NE 93km
Mise à jour: 17/11/2018 13:55
clair
clair
 Wind from E
Vent: E 17 km/h
Température: 9°C
Température ressentie: 7°C
Point de rosée: 1°C
Humidité: 58%
Baromètre: 1029 hPa
Ciel: clair
Visibilité: 10 km
2018/11/17 12:55 EBDT 171255Z AUTO 08009KT 9999 NCD 09/01 Q1029 BLU
 
EBAW - Antwerp/Deurne, Belgium
Distance de la station: N 96km
Mise à jour: 17/11/2018 14:20
clair
clair
 Wind from E
Vent: E 19 km/h
Résumé: clair
Visibilité: greater than 10 km
2018/11/17 13:20 EBAW 171320Z 08010KT CAVOK 09/// Q1028 NOSIG
LFAQ - Bray, France
Distance de la station: OSO 119km
Mise à jour: 17/11/2018 14:00

 Wind from ENE
Vent: ENE 20 km/h
Température: 8°C
Température ressentie: 4°C
Point de rosée: 3°C
Humidité: 71%
Baromètre: 1025 hPa
Visibilité: 10 km
2018/11/17 13:00 LFAQ 171300Z AUTO 07011KT 9999 ////// 08/03 Q1025
LFSR - Reims/Champagne, France
Distance de la station: S 120km
Mise à jour: 16/04/2012 09:00
NOT Current
partiellement nuageux
partiellement nuageux
 Wind from N
Vent: N 17 km/h
Température: 4°C
Température ressentie: 0°C
Point de rosée: 0°C
Humidité: 75%
Baromètre: 1022 hPa
Ciel: partiellement nuageux
Visibilité: 10 km
2012/04/16 07:00 LFSR 160700Z AUTO 01009KT 340V070 9999 NSC 04/00 Q1022
 
EHWO - Woensdrecht, Netherlands
Distance de la station: N 122km
Mise à jour: 17/11/2018 14:25
clair
clair
 Wind from E
Vent: E 22 km/h
Température: 9°C
Température ressentie: 6°C
Point de rosée: 2°C
Humidité: 62%
Baromètre: 1029 hPa
Ciel: clair
Visibilité: 10 km
2018/11/17 13:25 EHWO 171325Z AUTO 08012KT 060V120 9999 NCD 09/02 Q1029 BLU
EHBK - Zuid-Limburg, Netherlands
Distance de la station: ENE 123km
Mise à jour: 17/11/2018 14:25
clair
clair
 Wind from ENE
Vent: ENE 20 km/h
Température: 9°C
Température ressentie: 6°C
Point de rosée: 1°C
Humidité: 58%
Baromètre: 1028 hPa
Ciel: clair
Visibilité: 10 km
2018/11/17 13:25 EHBK 171325Z AUTO 07011KT 030V110 9999 NCD 09/01 Q1028 NOSIG
EBBL - Kleine-Brogel, Belgium
Distance de la station: NE 124km
Mise à jour: 17/11/2018 13:55
clair
clair
 Wind from E
Vent: E 11 km/h
Température: 9°C
Température ressentie: 7°C
Point de rosée: 1°C
Humidité: 58%
Baromètre: 1030 hPa
Ciel: clair
Visibilité: 10 km
2018/11/17 12:55 EBBL 171255Z AUTO 08006KT 9999 NCD 09/01 Q1030 BLU
 
EBLB - Elsenborn, Belgium
Distance de la station: E 135km
Mise à jour: 17/11/2018 13:55
clair
clair
 Wind from E
Vent: E 17 km/h
Température: 8°C
Température ressentie: 5°C
Point de rosée: -4°C
Humidité: 43%
Baromètre: 1027 hPa
Ciel: clair
Visibilité: 10 km
2018/11/17 12:55 EBLB 171255Z AUTO 09009KT 9999 NCD 08/M04 Q1027 BLU
EBOS - Oostende Airport, Belgium
Distance de la station: NO 136km
Mise à jour: 17/11/2018 14:20
clair
clair
 Wind from E
Vent: E 22 km/h
Température: 9°C
Température ressentie: 6°C
Point de rosée: 3°C
Humidité: 66%
Baromètre: 1027 hPa
Résumé: clair
Visibilité: greater than 10 km
2018/11/17 13:20 EBOS 171320Z 08012KT CAVOK 09/03 Q1027 NOSIG
EBFN - Koksijde, Belgium
Distance de la station: NO 140km
Mise à jour: 17/11/2018 14:23
clair
clair
 Wind from E
Vent: E 20 km/h
Température: 9°C
Température ressentie: 6°C
Point de rosée: 3°C
Humidité: 66%
Baromètre: 1027 hPa
Ciel: clair
Visibilité: 10 km
2018/11/17 13:23 EBFN 171323Z AUTO 08011KT 9999 NCD 09/03 Q1027 BLU
 
ETNG - Geilenkirchen, Germany
Distance de la station: ENE 142km
Mise à jour: 16/11/2018 17:50
NOT Current
clair
clair
 Wind from E
Vent: E 19 km/h
Température: 7°C
Température ressentie: 4°C
Point de rosée: 3°C
Humidité: 76%
Baromètre: 1027 hPa
Résumé: clair
Visibilité: greater than 10 km
2018/11/16 16:50 ETNG 161650Z 09010KT CAVOK 07/03 Q1027 NOSIG
EHGR - Gilze-Rijen, Netherlands
Distance de la station: NNE 143km
Mise à jour: 17/11/2018 14:25
clair
clair
 Wind from E
Vent: E 20 km/h
Température: 9°C
Température ressentie: 6°C
Point de rosée: 2°C
Humidité: 62%
Baromètre: 1030 hPa
Ciel: clair
Visibilité: 10 km
2018/11/17 13:25 EHGR 171325Z AUTO 08011KT 050V140 9999 NCD 09/02 Q1030 BLU
EHEH - Eindhoven, Netherlands
Distance de la station: NNE 147km
Mise à jour: 17/11/2018 14:25
clair
clair
 Wind from ENE
Vent: ENE 15 km/h
Température: 9°C
Température ressentie: 7°C
Point de rosée: 2°C
Humidité: 62%
Baromètre: 1030 hPa
Ciel: clair
Visibilité: 10 km
2018/11/17 13:25 EHEH 171325Z AUTO 07008KT 030V110 9999 NCD 09/02 Q1030 BLU 09010KT CAVOK
 
ELLX - Luxembourg, Luxembourg
Distance de la station: ESE 162km
Mise à jour: 17/11/2018 14:20
clair
clair
 Wind from ENE
Vent: ENE 26 km/h
Température: 9°C
Température ressentie: 6°C
Point de rosée: -1°C
Humidité: 50%
Baromètre: 1025 hPa
Résumé: clair
Visibilité: greater than 10 km
2018/11/17 13:20 ELLX 171320Z 06014KT CAVOK 09/M01 Q1025 NOSIG
EHVK - Volkel, Netherlands
Distance de la station: NE 174km
Mise à jour: 17/11/2018 14:25
clair
clair
 Wind from ENE
Vent: ENE 20 km/h
Température: 9°C
Température ressentie: 6°C
Point de rosée: 3°C
Humidité: 66%
Baromètre: 1030 hPa
Ciel: clair
Visibilité: 10 km
2018/11/17 13:25 EHVK 171325Z AUTO 07011KT 9999 NCD 09/03 Q1030 BLU
LFOK - Chalons/Vatry, France
Distance de la station: S 174km
Mise à jour: 17/11/2018 14:00
partiellement nuageux
partiellement nuageux
 Wind from ENE
Vent: ENE 30 km/h
Température: 8°C
Température ressentie: 4°C
Point de rosée: 3°C
Humidité: 71%
Baromètre: 1023 hPa
Ciel: partiellement nuageux
Visibilité: 9 km
2018/11/17 13:00 LFOK 171300Z AUTO 07016KT 9000 NSC 08/03 Q1023 NOSIG

Script from Saratoga-Weather.org